Accueil
METAR-TAF:

METAR-TAF

Aéroports :

Makkovik, Terre-Neuve-et-Labrador, Canada

latitude: 55-05N, longitude: 059-11W, altitude: 71 m

Observation

Le bulletin a été fait il y a 6 heures et 33 minutes, à 21:00 UTC
Vent 19 kt de ouest avec des rafales jusqu'à 26 kt
Température -9°C
Humidité 73%
Pression 1007 hPa
Visibilité: 24.1 km
Quelques nuages à une hauteur de 2500 ft
Chasse-neige basse

METAR: CYFT 112100Z 27019G26KT 15SM DRSN FEW025 M09/M13 A2973 RMK SC1 LAST STFD OBS/NEXT 121000Z SLP074

Heure: 23:33 (03:33 UTC)


TAF: absent

Observations et prévisions météorologiques de plus de 4000 aéroports (messages METAR et TAF).

Les stations disponibles sont représentées par des disques jaunes et rouges sur la carte.

Passer la souris dessus pour voir le nom de la station.

Cliquer dessus pour voir les observations et prévisions météorologiques.

Pour changer de carte: cliquez sur les boutons verts avec une croix noire pour zoomer, sur le bouton vert avec un tiret pour effectuer un zoom arrière, ou sur les flèches vertes pour les cartes adjacentes.


METAR-TAF: